Terminal Aerodrome Forecast
Issued by NWS Mobile, AL

Home | Current Version | Previous Version | Text Only | Print | Product List | Glossary On
Versions: 1 2 3 4 5 6 7 8 9 10 11 12 13 14 15 16 17 18 19 20 21 22 23 24 25 26 27 28 29 30 31 32 33 34 35
000
FTUS44 KMOB 301700 RRA
TAFMOB
TAF
KMOB 301744Z 3018/0118 05006KT P6SM OVC020
     FM010400 00000KT 5SM BR BKN015
     FM011000 00000KT 2SM BR OVC008
     FM011500 08005KT P6SM BKN015=

USA.gov is the U.S. government's official web portal to all federal, state and local government web resources and services.